Date,TemperatureHighF,TemperatureAvgF,TemperatureLowF,DewpointHighF,DewpointAvgF,DewpointLowF,HumidityHigh,HumidityAvg,HumidityLow,PressureMaxIn,PressureMinIn,WindSpeedMaxMPH,WindSpeedAvgMPH,GustSpeedMaxMPH,PrecipitationSumIn
2013-1-1,49,38,28,31,25,13,93,63,31,30.23,30.15,0,0,0,0.01
2013-1-2,55,39,31,33,24,15,82,57,23,30.20,30.09,0,0,0,0.00
2013-1-3,54,39,30,34,28,25,86,68,35,30.23,30.08,0,0,0,0.00
2013-1-4,57,37,34,34,10,-100,85,52,26,30.25,30.13,0,-116,0,0.00
2013-1-5,53,42,36,37,28,-100,84,63,32,30.22,30.04,0,-12,0,0.00
2013-1-6,46,39,34,39,35,32,95,88,70,30.13,29.98,0,0,0,0.03
2013-1-7,56,42,33,40,29,-100,92,66,31,30.16,30.06,0,-24,0,0.01
2013-1-8,60,47,38,43,39,34,94,75,46,30.15,30.03,0,0,0,0.00
2013-1-9,50,42,30,39,34,28,94,75,49,30.08,29.80,0,0,0,0.49
2013-1-10,37,30,26,35,28,24,96,92,82,30.08,29.90,0,0,0,0.15
2013-1-11,40,30,24,28,24,16,93,79,51,30.17,30.08,0,0,0,0.00
2013-1-12,42,29,21,22,15,5,83,58,24,30.19,30.07,0,0,0,0.00
2013-1-13,43,29,21,20,6,-100,84,41,22,30.22,30.09,0,-14,0,0.01
2013-1-14,47,34,23,21,9,-100,63,37,17,30.35,30.09,0,-7,0,0.00
2013-1-15,48,35,26,28,18,-100,79,57,39,30.44,30.30,0,-43,0,0.00
2013-1-16,58,44,35,30,23,17,68,47,26,30.38,30.19,0,0,0,0.00
2013-1-17,66,46,35,34,21,4,64,39,14,30.25,30.10,0,0,0,0.00
2013-1-18,65,46,38,30,20,-100,60,40,15,30.21,30.00,0,-21,0,0.00
2013-1-19,65,47,38,31,17,-100,59,37,17,30.22,30.06,0,-40,0,0.00
2013-1-20,66,53,40,32,27,19,67,41,18,30.18,30.06,0,0,0,0.00
2013-1-21,65,49,38,31,24,9,61,40,13,30.12,30.05,0,0,0,0.00
2013-1-22,65,46,39,25,19,12,53,36,18,30.08,30.02,0,0,0,0.00
2013-1-23,51,46,45,44,43,36,93,89,56,30.03,29.99,0,0,0,0.13
2013-1-24,55,50,45,48,45,42,95,84,71,30.10,29.97,0,0,0,0.08
2013-1-25,58,51,48,54,49,47,100,91,74,30.10,29.93,0,0,0,0.09
2013-1-26,50,43,36,48,39,32,96,87,76,29.93,29.81,0,0,0,0.18
2013-1-27,43,37,31,38,33,24,96,85,67,30.08,29.91,0,0,11,0.35
2013-1-28,49,37,29,32,27,21,83,68,43,30.21,30.06,0,0,0,0.00
2013-1-29,46,38,32,38,32,28,86,76,64,30.27,30.18,0,0,0,0.00
2013-1-30,44,42,40,36,33,32,85,72,66,30.25,30.20,0,0,0,0.00
2013-1-31,62,49,39,43,38,31,89,69,34,30.25,30.11,0,0,11,27.04
2013-2-1,66,50,41,38,33,28,81,53,27,30.19,30.06,0,0,0,0.00
2013-2-2,63,50,42,42,35,29,78,61,28,30.22,30.12,0,0,0,0.00
2013-2-3,63,48,38,41,34,25,82,61,28,30.16,30.03,0,0,0,0.00
2013-2-4,65,50,40,41,32,20,78,53,24,30.11,29.94,0,0,0,0.00
2013-2-5,56,45,36,42,36,29,92,71,50,30.04,29.92,0,0,0,0.00
2013-2-6,57,42,31,37,31,20,94,69,27,30.11,30.02,0,0,0,0.00
2013-2-7,40,38,34,38,34,31,93,85,71,30.04,29.90,0,0,0,1.30
2013-2-8,48,36,28,32,24,16,93,65,34,29.93,29.83,0,0,0,0.10
2013-2-9,52,38,27,27,20,13,66,51,27,30.05,29.89,0,0,0,0.00
2013-2-10,56,42,32,29,21,16,68,46,22,30.07,29.92,0,0,0,0.00
2013-2-11,57,42,31,28,21,15,66,46,23,30.18,30.00,0,0,0,0.00
2013-2-12,54,41,31,34,29,21,85,63,40,30.32,30.15,0,0,0,0.00
2013-2-13,61,45,32,39,33,27,92,67,37,30.28,30.12,0,0,0,0.00
2013-2-14,71,55,45,40,29,18,62,38,17,30.17,30.05,0,0,0,0.00
2013-2-15,67,51,42,36,28,17,72,43,17,30.23,30.10,0,0,0,0.00
2013-2-16,67,52,42,39,33,24,72,51,22,30.17,29.92,0,0,0,0.00
2013-2-17,62,48,38,38,34,30,82,60,35,29.96,29.86,0,0,0,0.00
2013-2-18,58,45,37,38,34,30,85,66,39,29.92,29.76,0,0,0,0.00
2013-2-19,37,33,28,32,30,26,94,90,79,29.79,29.65,0,0,0,1.00
2013-2-20,47,35,26,38,29,24,93,80,54,29.97,29.74,0,0,0,6.50
2013-2-21,53,40,30,31,27,18,90,63,26,30.10,29.92,0,0,0,0.00
2013-2-22,56,44,32,34,28,21,70,55,33,30.17,30.05,0,0,0,0.00
2013-2-23,52,42,32,37,27,13,88,59,34,30.16,29.98,0,0,0,0.00
2013-2-24,59,43,29,25,18,7,58,40,13,30.17,30.07,0,0,0,0.00
2013-2-25,58,44,36,30,26,22,71,51,29,30.21,30.10,0,0,0,0.00
2013-2-26,63,46,34,27,16,7,74,33,14,30.15,30.04,0,0,0,0.00
2013-2-27,62,49,38,31,20,9,60,34,18,30.28,30.12,0,0,0,0.00
2013-2-28,65,50,40,38,32,22,75,52,25,30.37,30.25,0,0,0,0.00
2013-3-1,70,54,42,45,40,35,80,61,30,30.35,30.15,0,0,0,0.00
2013-3-2,69,57,48,40,35,30,71,45,26,30.16,29.94,0,0,0,0.00
2013-3-3,54,50,44,45,41,37,79,71,54,29.97,29.91,0,0,0,0.00
2013-3-4,65,49,38,43,39,34,90,71,36,30.02,29.89,0,0,0,0.00
2013-3-5,51,46,42,42,37,32,87,71,49,29.93,29.72,0,0,0,0.50
2013-3-6,42,38,37,38,36,34,94,92,79,29.97,29.71,0,0,0,7.30
2013-3-7,50,42,34,36,34,32,91,75,55,29.91,29.79,0,0,0,0.10
2013-3-8,59,44,33,39,32,26,91,66,29,29.90,29.72,0,0,0,0.50
2013-3-9,62,48,36,35,29,14,91,52,23,30.26,29.89,0,0,0,0.00
2013-3-10,63,49,36,42,29,10,88,50,27,30.29,30.15,0,0,0,0.00
2013-3-11,68,52,39,43,39,35,90,65,31,30.20,30.02,0,0,0,0.00
2013-3-12,72,55,43,46,42,38,89,64,33,30.10,29.98,0,0,0,0.00
2013-3-13,76,60,48,49,39,31,80,49,23,30.09,29.99,0,0,0,0.00
2013-3-14,75,62,53,45,36,25,70,40,22,30.03,29.97,9,0,9,0.00
2013-3-15,72,57,47,46,40,30,74,55,22,30.01,29.93,10,1,12,0.00
2013-3-16,71,55,45,43,35,27,78,50,22,29.98,29.90,10,1,12,0.00
2013-3-17,66,52,40,39,32,26,70,49,26,30.04,29.92,13,1,13,0.00
2013-3-18,67,53,42,38,32,25,64,47,21,30.03,29.93,13,1,13,0.00
2013-3-19,64,53,44,47,38,28,93,60,27,30.03,29.94,25,4,25,2.61
2013-3-20,50,47,45,48,46,44,96,95,93,30.02,29.94,40,11,40,1.00
2013-3-21,59,48,40,49,42,35,99,82,50,30.01,29.91,14,1,14,0.00
2013-3-22,61,46,35,38,23,8,83,44,17,30.02,29.91,22,2,22,0.00
2013-3-23,63,50,36,34,21,8,58,33,16,30.05,29.94,21,2,21,0.00
2013-3-24,68,52,40,36,31,26,67,47,23,30.04,29.86,16,2,16,0.00
2013-3-25,68,55,43,40,35,31,71,50,27,29.93,29.77,28,6,28,0.00
2013-3-26,64,53,44,42,38,34,71,56,36,29.87,29.77,20,6,22,0.00
2013-3-27,66,55,48,47,41,37,80,61,37,29.89,29.80,31,6,31,0.00
2013-3-28,61,51,47,45,42,38,83,73,51,30.03,29.86,17,3,17,0.01
2013-3-29,73,58,43,46,40,35,86,56,27,30.04,29.94,17,2,20,0.00
2013-3-30,73,61,50,50,42,36,85,53,30,29.96,29.83,21,3,21,0.01
2013-3-31,57,50,44,48,44,41,94,82,58,30.00,29.84,21,4,21,0.74
2013-4-1,59,49,42,48,44,40,97,83,57,30.09,29.96,17,2,17,0.05
2013-4-2,65,52,40,48,42,37,93,72,42,30.08,29.99,17,2,17,0.01
2013-4-3,70,56,45,53,47,43,95,75,43,30.05,29.87,18,1,18,0.00
2013-4-4,54,50,44,51,47,38,97,90,63,30.02,29.83,32,9,32,0.62
2013-4-5,60,52,46,48,46,42,97,82,57,30.06,30.00,24,6,24,0.02
2013-4-6,60,51,46,48,45,42,90,81,57,30.09,30.00,21,6,21,0.02
2013-4-7,62,51,41,47,44,39,93,77,52,30.03,29.65,43,14,43,0.18
2013-4-8,58,46,37,42,32,22,96,65,26,29.94,29.61,43,6,43,0.20
2013-4-9,68,52,35,30,24,15,72,39,15,30.04,29.93,38,6,38,0.00
2013-4-10,77,61,45,48,37,24,58,42,26,30.11,29.83,18,1,18,0.00
2013-4-11,71,59,50,49,41,29,82,55,28,29.87,29.68,24,2,24,0.00
2013-4-12,75,60,47,48,34,26,67,40,19,29.80,29.68,17,2,17,0.00
2013-4-13,72,60,49,45,37,31,67,45,28,29.76,29.66,14,1,14,0.00
2013-4-14,65,55,46,40,32,19,63,43,18,29.75,29.61,21,3,21,0.00
2013-4-15,54,46,38,39,31,19,87,59,28,29.80,29.63,21,6,21,0.00
2013-4-16,59,44,33,30,22,13,76,45,18,30.07,29.79,36,5,36,0.00
2013-4-17,63,48,32,25,18,11,57,33,14,30.18,30.06,28,5,28,0.00
2013-4-18,68,54,41,35,25,13,57,34,15,30.18,30.11,20,2,20,0.00
2013-4-19,73,59,46,42,35,30,61,43,26,30.14,29.96,15,2,15,0.00
2013-4-20,75,61,49,44,37,26,66,43,24,30.01,29.87,13,1,13,0.00
2013-4-21,79,63,49,47,37,30,61,40,18,29.96,29.85,12,1,14,0.00
2013-4-22,82,66,52,43,36,21,65,37,14,29.88,29.74,20,2,20,0.00
2013-4-23,79,63,50,38,25,12,45,24,14,29.85,29.73,20,4,20,0.00
2013-4-24,80,66,52,33,20,9,46,20,8,29.78,29.66,26,5,26,0.00
2013-4-25,74,61,48,47,33,9,73,37,15,29.96,29.70,17,2,17,0.00
2013-4-26,76,62,48,52,44,38,73,55,31,30.07,29.95,12,1,12,0.00
2013-4-27,83,66,52,52,45,38,75,50,23,30.10,29.92,12,1,12,0.00
2013-4-28,83,68,54,52,42,31,62,42,21,29.94,29.75,12,1,12,0.00
2013-4-29,82,68,56,55,45,39,74,47,23,29.78,29.61,10,1,12,0.00
2013-4-30,81,66,52,48,36,4,73,39,10,29.74,29.59,26,2,26,0.00
2013-5-1,84,68,54,31,13,0,25,12,6,29.99,29.74,24,5,24,0.00
2013-5-2,85,68,54,39,26,2,46,22,10,30.08,29.96,14,2,14,0.00
2013-5-3,84,69,55,47,38,29,63,34,19,29.97,29.69,12,1,12,0.00
2013-5-4,83,74,63,43,34,27,33,23,16,29.56,29.40,29,7,29,0.00
2013-5-5,69,62,53,46,43,40,66,51,36,29.69,29.55,20,3,20,0.00
2013-5-6,61,54,48,51,46,40,95,77,56,29.86,29.68,12,1,12,0.53
2013-5-7,55,52,50,52,49,47,94,89,83,29.94,29.83,12,1,11,0.35
2013-5-8,63,56,51,53,50,47,95,81,61,30.02,29.92,12,1,12,0.02
2013-5-9,74,61,48,56,51,46,96,73,45,30.01,29.94,12,1,12,0.00
2013-5-10,81,67,54,61,55,52,94,68,39,30.02,29.96,12,1,12,0.00
2013-5-11,85,72,57,61,55,49,86,59,30,30.02,29.90,13,1,13,0.00
2013-5-12,87,74,63,56,45,35,68,40,17,30.00,29.86,21,2,21,0.00
2013-5-13,88,73,60,48,38,25,55,31,12,29.92,29.78,22,4,22,0.00
2013-5-14,84,71,60,54,45,30,57,39,24,29.78,29.73,16,2,16,0.00
2013-5-15,76,66,57,50,45,38,69,48,27,29.84,29.72,32,5,32,0.00
2013-5-16,67,59,52,49,45,41,77,60,44,29.85,29.76,30,9,30,0.01
2013-5-17,68,57,47,46,41,34,86,58,33,29.93,29.79,21,5,21,0.00
2013-5-18,74,59,46,48,40,35,78,51,26,30.00,29.92,12,1,14,0.00
2013-5-19,78,64,51,48,39,24,67,42,24,30.00,29.88,21,2,21,0.00
2013-5-20,83,68,54,45,33,22,48,28,13,29.92,29.77,22,3,22,0.00
2013-5-21,75,65,52,44,35,23,59,35,15,29.78,29.68,27,7,27,0.00
2013-5-22,64,50,35,36,24,9,74,41,15,29.82,29.76,16,2,16,0.00
2013-5-23,66,53,42,42,28,18,57,39,24,29.90,29.74,16,2,16,0.00
2013-5-24,72,57,42,42,33,29,75,44,23,29.90,29.80,14,2,14,0.00
2013-5-25,72,60,48,42,35,31,60,41,23,29.86,29.72,20,3,20,0.00
2013-5-26,69,60,48,48,39,33,72,47,29,29.97,29.84,24,4,24,0.00
2013-5-27,66,58,50,51,44,20,93,62,31,29.96,29.85,22,3,22,0.06
2013-5-28,69,58,50,54,49,46,97,75,44,29.89,29.79,13,2,13,0.03
2013-5-29,72,60,52,53,48,39,95,66,39,29.83,29.72,29,4,29,0.11
2013-5-30,76,63,50,49,41,35,74,48,26,29.86,29.78,17,1,17,0.00
2013-5-31,86,68,51,51,41,34,65,41,19,29.89,29.77,17,1,17,0.00
2013-6-1,89,74,60,55,40,26,49,31,15,29.79,29.63,12,1,12,0.00
2013-6-2,89,74,60,56,46,39,70,40,18,29.66,29.53,20,1,20,0.00
2013-6-3,89,77,61,55,46,35,57,36,20,29.64,29.52,14,1,14,0.00
2013-6-4,84,72,60,61,51,43,67,48,30,29.74,29.61,18,1,18,0.00
2013-6-5,86,73,59,63,56,51,86,57,34,29.81,29.72,12,1,12,0.00
2013-6-6,90,76,63,64,57,53,83,55,31,29.77,29.68,12,1,12,0.00
2013-6-7,98,80,62,61,51,42,70,41,17,29.73,29.60,12,0,12,0.00
2013-6-8,100,88,73,61,53,41,52,31,21,29.61,29.48,10,1,12,0.00
2013-6-9,95,85,64,64,55,36,58,36,27,29.71,29.45,24,3,24,0.00
2013-6-10,68,63,54,53,48,45,83,60,49,29.83,29.56,20,3,20,0.00
2013-6-11,80,67,53,51,47,39,83,51,29,29.85,29.75,29,4,29,0.00
2013-6-12,80,68,55,53,41,23,81,42,14,29.83,29.73,20,4,26,0.00
2013-6-13,78,64,50,50,36,27,66,38,16,29.98,29.78,14,1,17,0.00
2013-6-14,82,69,54,46,37,26,52,32,20,29.88,29.70,13,2,13,0.00
2013-6-15,83,69,55,47,37,27,67,34,13,29.82,29.68,20,2,20,0.00
2013-6-16,84,71,56,48,38,30,57,32,18,29.94,29.78,13,1,13,0.00
2013-6-17,81,69,56,47,42,35,69,39,20,29.95,29.78,26,4,26,0.00
2013-6-18,71,62,53,49,42,37,66,50,30,29.85,29.77,26,9,26,0.00
2013-6-19,71,58,47,46,39,26,84,54,22,29.91,29.80,18,3,18,0.00
2013-6-20,77,63,49,46,35,25,60,39,18,29.88,29.81,16,2,16,0.00
2013-6-21,80,67,54,48,39,33,63,38,23,29.84,29.78,17,2,17,0.00
2013-6-22,84,70,56,49,38,26,61,33,17,29.80,29.67,17,1,17,0.00
2013-6-23,72,65,59,54,47,37,83,54,35,29.72,29.60,28,6,28,0.00
2013-6-24,59,55,53,54,53,50,96,90,82,29.83,29.63,26,6,26,0.73
2013-6-25,62,58,53,62,58,52,100,100,96,29.91,29.80,34,7,35,0.86
2013-6-26,81,69,59,63,60,57,100,77,45,29.94,29.87,25,2,25,0.00
2013-6-27,89,74,60,65,59,49,95,64,28,29.99,29.89,13,1,13,0.00
2013-6-28,93,78,63,64,53,43,76,47,19,29.90,29.78,10,0,14,0.00
2013-6-29,97,82,69,64,55,47,69,42,19,29.82,29.67,8,1,12,0.00
2013-6-30,97,82,68,61,53,45,67,39,20,29.70,29.62,12,1,12,0.00
2013-7-1,98,83,70,68,55,44,63,40,20,29.71,29.62,12,0,12,0.00
2013-7-2,99,88,78,65,56,43,51,35,24,29.73,29.63,21,2,21,0.00
2013-7-3,98,85,73,65,58,49,60,41,25,29.72,29.59,12,1,12,0.00
2013-7-4,97,84,74,67,57,46,57,42,18,29.60,29.50,12,1,12,0.00
2013-7-5,89,80,70,54,46,37,54,32,17,29.55,29.45,20,6,31,0.00
2013-7-6,89,75,62,53,45,36,57,37,18,29.62,29.55,21,2,21,0.00
2013-7-7,90,76,63,50,43,36,58,34,17,29.69,29.60,17,2,17,0.00
2013-7-8,90,76,64,52,44,35,63,35,15,29.82,29.67,30,3,30,0.00
2013-7-9,93,78,64,46,38,30,49,26,11,29.91,29.80,21,2,21,0.00
2013-7-10,93,80,67,45,38,31,42,23,15,29.81,29.71,21,3,21,0.00
2013-7-11,90,76,64,50,35,26,48,24,14,29.75,29.69,24,3,24,0.00
2013-7-12,87,74,61,44,35,28,53,26,14,29.78,29.69,21,3,21,0.00
2013-7-13,90,75,61,44,37,31,44,27,14,29.82,29.74,26,2,26,0.00
2013-7-14,90,76,63,55,44,36,60,35,16,29.84,29.72,17,1,17,0.00
2013-7-15,88,75,64,52,44,36,59,36,20,29.72,29.64,18,2,18,0.00
2013-7-16,83,72,61,44,40,30,50,33,17,29.84,29.64,18,2,24,0.00
2013-7-17,86,66,58,47,40,33,67,41,18,29.94,29.84,5,0,5,0.00
2013-7-18,90,76,61,50,40,33,55,30,16,29.92,29.79,12,1,12,0.00
2013-7-19,77,73,64,48,41,30,55,33,24,29.80,29.74,0,0,0,0.00
2013-7-20,96,80,75,55,47,42,42,31,19,29.77,29.57,8,0,8,0.00
2013-7-21,95,82,69,63,52,38,65,37,24,29.67,29.56,22,2,22,0.00
2013-7-22,75,73,72,39,37,36,28,27,27,29.80,29.67,20,4,20,0.00
2013-7-23,72,72,72,36,36,36,27,27,27,29.80,29.80,4,3,4,0.00
2013-7-24,72,72,72,36,36,36,27,27,27,29.80,29.80,4,3,4,0.00
2013-7-25,94,77,72,58,41,36,31,27,24,29.80,29.75,17,3,17,0.00
2013-8-1,92,64,61,52,40,38,44,42,26,29.81,29.77,0,0,0,0.00
2013-8-2,86,72,57,43,36,26,51,29,17,29.84,29.76,12,1,12,0.00
2013-8-3,86,73,58,47,41,33,55,34,17,29.83,29.75,18,1,18,0.00
2013-8-4,87,73,60,48,42,33,61,35,16,29.85,29.77,21,1,21,0.00
2013-8-5,86,72,59,54,42,37,66,36,19,29.87,29.78,22,1,22,0.00
2013-8-6,86,73,61,50,42,35,51,35,19,29.84,29.78,13,1,13,0.00
2013-8-7,79,69,59,53,44,38,62,42,23,29.89,29.80,17,2,17,0.00
2013-8-8,79,66,54,53,45,38,72,48,24,29.88,29.79,14,1,14,0.00
2013-8-9,80,67,56,50,44,36,74,46,25,29.82,29.74,17,3,17,0.00
2013-8-10,81,68,57,50,43,36,65,43,22,29.89,29.81,16,2,16,0.00
2013-8-11,83,70,57,53,44,38,71,43,22,29.89,29.79,17,2,17,0.00
2013-8-12,85,71,58,53,44,37,70,40,20,29.84,29.79,20,2,20,0.00
2013-8-13,89,73,60,49,40,34,60,33,16,29.88,29.78,12,1,12,0.00
2013-8-14,90,74,62,49,40,31,61,31,13,29.85,29.76,16,1,16,0.00
2013-8-15,91,76,62,48,40,28,48,30,11,29.82,29.74,20,2,20,0.00
2013-8-16,92,77,63,48,38,27,47,26,10,29.85,29.76,14,2,20,0.00
2013-8-17,92,77,63,50,43,28,55,33,13,29.86,29.70,14,1,14,0.00
2013-8-18,94,79,64,53,46,41,57,34,18,29.77,29.66,15,1,15,0.00
2013-8-19,90,80,70,57,50,41,56,36,23,29.77,29.65,13,1,13,0.00
2013-8-20,92,81,71,60,53,44,58,39,25,29.71,29.63,13,1,13,0.00
2013-8-21,88,77,65,58,52,41,76,45,21,29.74,29.64,20,2,20,0.00
2013-8-22,87,74,62,53,44,34,64,36,17,29.78,29.71,20,2,20,0.00
2013-8-23,85,71,54,53,42,37,78,38,20,29.77,29.66,20,2,20,0.48
2013-8-24,83,72,63,48,42,38,52,34,22,29.71,29.64,34,6,35,0.00
2013-8-25,79,68,56,58,48,41,83,52,28,29.83,29.69,21,3,21,0.90
2013-8-26,82,69,57,52,48,42,79,52,27,29.86,29.77,20,3,20,0.00
2013-8-27,87,73,60,50,43,36,61,37,18,29.77,29.67,18,2,18,0.00
2013-8-28,87,74,61,47,42,31,54,34,17,29.77,29.67,16,2,17,0.00
2013-8-29,86,74,64,48,42,37,49,34,18,29.89,29.75,22,2,22,0.00
2013-8-30,90,74,60,49,42,30,60,35,14,29.93,29.80,14,1,14,0.00
2013-8-31,91,76,63,46,41,35,49,30,15,29.85,29.73,18,2,18,0.00
2013-9-1,86,74,65,52,45,35,56,36,20,29.79,29.72,20,2,20,0.01
2013-9-2,71,64,59,65,58,47,97,85,45,29.83,29.71,12,1,12,1.23
2013-9-3,80,68,59,62,57,51,97,70,42,29.86,29.80,18,1,18,0.00
2013-9-4,83,70,58,57,52,46,89,57,32,29.90,29.78,21,2,21,0.00
2013-9-5,80,68,57,51,44,37,74,45,22,29.87,29.75,21,4,21,0.00
2013-9-6,86,69,55,51,42,34,70,41,17,29.89,29.74,14,1,14,0.00
2013-9-7,90,74,63,49,43,38,52,35,19,29.79,29.70,17,1,17,0.00
2013-9-8,93,75,62,52,43,33,65,35,14,29.77,29.64,14,0,14,0.00
2013-9-9,94,78,64,53,43,34,54,31,15,29.69,29.54,8,0,12,0.00
2013-9-10,91,77,66,52,43,29,58,31,18,29.68,29.55,14,1,14,0.00
2013-9-11,83,70,61,57,51,46,69,52,30,29.82,29.68,12,1,17,0.00
2013-9-12,83,70,58,56,49,42,75,51,27,29.86,29.73,14,1,14,0.00
2013-9-13,85,73,62,58,53,50,74,51,33,29.76,29.59,12,1,12,0.00
2013-9-14,87,75,65,57,53,48,68,49,28,29.65,29.56,13,0,13,0.00
2013-9-15,84,72,59,52,41,26,59,35,14,29.69,29.55,29,3,29,0.00
2013-9-16,83,68,56,48,41,36,67,40,19,29.77,29.63,20,2,20,0.00
2013-9-17,72,64,54,50,45,39,69,52,31,29.77,29.59,30,7,30,0.00
2013-9-18,80,64,52,45,40,32,70,44,20,29.80,29.70,13,1,13,0.00
2013-9-19,84,68,55,42,37,32,54,34,16,29.78,29.64,14,1,18,0.00
2013-9-20,79,68,58,54,38,25,82,38,14,29.69,29.60,26,6,35,0.14
2013-9-21,58,54,46,53,50,43,95,85,76,29.81,29.60,24,2,24,0.58
2013-9-22,67,53,42,49,44,39,96,76,41,29.94,29.79,13,1,13,0.00
2013-9-23,76,60,48,52,47,43,85,63,38,29.94,29.82,17,1,17,0.00
2013-9-24,72,62,54,51,46,39,74,58,37,29.83,29.69,26,7,33,0.00
2013-9-25,63,53,45,48,38,26,94,62,30,29.79,29.71,24,2,24,0.00
2013-9-26,67,54,43,35,29,25,59,40,24,29.91,29.70,32,3,32,0.00
2013-9-27,71,56,44,37,32,27,59,42,21,30.01,29.89,14,1,14,0.00
2013-9-28,75,62,51,40,34,29,55,37,20,30.02,29.91,21,2,21,0.00
2013-9-29,70,61,56,52,44,30,83,54,35,29.97,29.89,32,10,32,0.00
2013-9-30,68,59,54,55,52,51,93,79,57,29.97,29.85,18,5,22,0.00
2013-10-1,72,59,50,54,49,44,95,72,37,29.90,29.81,12,1,12,0.00
2013-10-2,71,58,49,47,40,29,85,54,25,29.88,29.80,15,1,15,0.00
2013-10-3,69,55,41,35,24,11,70,35,12,30.00,29.84,32,5,32,0.00
2013-10-4,76,60,47,25,17,5,37,20,10,30.02,29.94,35,6,35,0.00
2013-10-5,78,61,48,32,21,7,43,22,11,30.14,30.00,17,1,17,0.00
2013-10-6,79,63,50,34,25,14,47,26,10,30.09,29.90,16,1,16,0.00
2013-10-7,80,63,52,31,22,14,37,22,11,29.92,29.76,10,1,10,0.00
2013-10-8,72,58,50,37,29,21,52,34,18,29.79,29.52,12,0,12,0.00
2013-10-9,66,55,48,37,32,27,57,42,27,29.64,29.43,26,4,26,0.00
2013-10-10,64,53,45,42,37,32,72,56,37,29.91,29.64,13,2,13,0.00
2013-10-11,69,54,44,42,38,36,83,57,30,30.00,29.88,12,1,12,0.00
2013-10-12,69,56,46,45,36,32,90,51,28,29.92,29.75,18,1,18,0.17
2013-10-13,68,53,42,45,40,30,93,64,31,29.99,29.78,21,1,21,0.01
2013-10-14,71,56,44,38,32,26,56,41,23,30.05,29.92,12,0,13,0.00
2013-10-15,76,60,47,32,23,12,47,27,10,30.00,29.88,17,2,17,0.00
2013-10-16,74,60,48,34,26,11,46,28,18,30.03,29.89,14,2,14,0.00
2013-10-17,75,59,48,35,31,24,53,36,15,30.02,29.86,12,0,12,0.00
2013-10-18,77,61,50,36,29,18,47,31,15,29.99,29.87,13,0,13,0.00
2013-10-19,80,62,51,35,31,26,50,33,14,30.01,29.91,10,1,10,0.00
2013-10-20,80,62,51,39,34,29,54,36,18,29.94,29.80,9,1,9,0.00
2013-10-21,79,62,50,41,35,30,60,40,18,29.91,29.81,12,0,12,0.00
2013-10-22,82,64,52,36,27,19,47,27,10,29.95,29.81,9,0,9,0.00
2013-10-23,83,63,52,35,24,15,36,23,10,29.88,29.76,12,0,12,0.00
2013-10-24,79,62,53,34,27,17,40,28,14,29.96,29.78,12,0,12,0.00
2013-10-25,78,60,50,36,31,20,53,35,14,30.08,29.92,7,0,7,0.00
2013-10-26,78,60,49,38,32,24,52,36,15,30.08,29.90,9,0,9,0.00
2013-10-27,73,57,40,39,30,21,90,40,18,29.90,29.49,37,9,37,0.25
2013-10-28,46,43,39,43,40,36,96,90,79,29.94,29.60,18,3,18,0.06
2013-10-29,48,44,39,43,40,36,92,87,74,30.15,29.93,13,2,13,0.00
2013-10-30,59,46,36,40,36,33,92,73,42,30.25,30.14,12,0,12,0.01
2013-10-31,67,51,40,42,37,31,87,61,35,30.28,30.17,12,0,12,0.00
2013-11-1,73,56,44,39,35,25,75,49,19,30.30,30.09,10,0,10,0.00
2013-11-2,69,56,46,40,34,26,77,46,25,30.12,29.96,17,1,17,0.00
2013-11-3,60,48,40,43,33,23,93,59,29,30.06,29.95,11,0,11,0.00
2013-11-4,63,49,39,28,20,13,63,34,17,30.16,29.93,29,1,29,0.00
2013-11-5,66,50,39,31,25,15,60,40,19,30.33,30.15,10,0,10,0.00
2013-11-6,66,52,42,36,32,27,63,47,27,30.39,30.25,12,0,12,0.00
2013-11-7,72,59,51,33,25,18,49,29,14,30.28,30.12,20,1,20,0.00
2013-11-8,72,55,46,34,27,15,58,36,20,30.18,30.04,13,0,13,0.00
2013-11-9,72,55,45,39,34,30,63,48,25,30.15,30.05,13,0,13,0.00
2013-11-10,73,58,48,33,26,17,53,32,15,30.20,30.09,18,1,18,0.00
2013-11-11,72,58,48,30,22,9,44,25,12,30.25,30.13,13,0,13,0.00
2013-11-12,69,59,50,37,28,17,59,33,20,30.36,30.19,10,0,10,0.00
2013-11-13,76,60,50,38,33,26,55,38,20,30.33,30.09,14,0,14,0.00
2013-11-14,70,55,44,39,34,26,74,48,26,30.16,29.86,8,0,8,0.00
2013-11-15,64,49,41,37,32,26,87,54,28,29.87,29.78,11,0,11,0.00
2013-11-16,59,48,40,34,30,26,72,50,29,30.00,29.80,17,1,17,0.00
2013-11-17,61,47,38,36,33,30,82,61,32,30.19,29.99,13,0,13,0.00
2013-11-18,60,49,41,39,36,-100,76,64,41,30.23,30.11,24,1,24,0.00
2013-11-19,52,47,44,47,44,39,96,90,73,30.17,30.01,24,2,24,0.76
2013-11-20,50,47,44,49,46,43,97,97,96,30.02,29.91,24,3,24,0.55
2013-11-21,53,44,38,43,31,14,97,64,31,30.15,29.96,31,2,31,0.00
2013-11-22,64,48,39,22,8,-3,50,21,7,30.18,30.08,39,2,39,0.00
2013-11-23,64,49,39,34,19,3,67,34,14,30.17,30.05,33,1,33,0.00
2013-11-24,57,43,34,39,34,27,94,72,43,30.37,30.16,13,0,13,0.00
2013-11-25,59,44,36,39,34,-100,92,72,39,30.43,30.31,12,-14,12,0.00
2013-11-26,62,47,40,41,34,-100,86,67,36,30.37,30.12,10,-21,10,0.00
2013-11-27,64,52,41,35,30,26,65,45,26,30.14,29.94,20,1,20,0.00
2013-11-28,69,51,43,36,32,29,68,50,24,30.15,29.96,10,0,10,0.00
2013-11-29,66,49,40,37,34,30,74,58,28,30.32,30.14,10,0,10,0.00
2013-11-30,63,49,42,40,35,31,74,60,31,30.37,30.27,11,0,11,0.00
2013-12-1,66,50,40,39,35,30,77,59,30,30.44,30.29,7,0,7,0.00
2013-12-2,62,50,44,40,37,30,76,61,39,30.30,29.92,32,4,32,0.00
2013-12-3,48,39,28,44,31,-100,96,77,50,30.03,29.83,25,4,34,0.24
2013-12-4,44,32,26,18,15,9,66,51,27,30.18,30.01,14,1,14,0.00
2013-12-5,44,30,22,16,11,4,69,46,23,30.28,30.14,13,0,13,0.00
2013-12-6,38,31,26,28,20,13,94,65,40,30.30,29.96,42,6,42,0.00
2013-12-7,32,27,19,30,25,16,95,90,76,30.36,29.95,37,2,37,0.09
2013-12-8,38,25,17,32,19,11,94,80,53,30.44,30.34,13,0,13,0.10
2013-12-9,46,32,25,26,19,9,81,58,26,30.56,30.37,16,0,16,0.09
2013-12-10,52,36,26,26,21,14,76,58,26,30.53,30.28,10,0,10,0.04
2013-12-11,58,41,31,29,24,18,75,54,24,30.37,30.29,6,0,8,0.00
2013-12-12,61,44,36,28,20,12,60,42,15,30.39,30.25,10,0,10,0.00
2013-12-13,60,42,34,30,16,-100,62,43,21,30.40,30.29,9,-59,9,0.00
2013-12-14,60,44,33,33,24,16,67,47,22,30.51,30.37,12,0,12,0.00
2013-12-15,65,48,40,32,25,17,61,42,21,30.48,30.32,7,0,7,0.00
2013-12-16,75,54,43,38,30,20,59,42,14,30.36,30.22,5,0,5,0.00
2013-12-17,72,56,47,38,27,18,48,33,16,30.28,30.07,18,0,18,0.00
2013-12-18,66,53,43,36,29,17,66,42,23,30.09,29.74,14,0,14,0.00
2013-12-19,54,43,34,34,24,9,80,49,27,29.97,29.72,29,1,29,0.00
2013-12-20,57,43,33,28,15,1,61,35,15,30.10,29.95,14,0,19,0.00
2013-12-21,60,47,38,38,32,25,80,57,37,30.18,30.03,14,0,14,0.00
2013-12-22,66,52,44,38,31,23,60,44,31,30.36,30.14,18,1,18,0.00
2013-12-23,64,49,39,37,32,27,69,54,27,30.49,30.34,12,0,12,0.00
2013-12-24,72,54,44,39,26,0,66,40,11,30.42,30.27,19,0,19,0.00
2013-12-25,71,52,42,28,18,6,44,28,9,30.41,30.29,7,0,7,0.00
2013-12-26,70,52,42,29,23,15,51,35,14,30.40,30.28,7,0,7,0.00
2013-12-27,64,51,42,36,23,11,54,34,20,30.36,30.20,10,0,10,0.00
2013-12-28,68,50,39,25,17,10,53,29,13,30.23,30.12,15,0,15,0.00
2013-12-29,63,49,41,33,17,3,46,29,13,30.30,30.14,10,0,10,0.00
2013-12-30,65,50,41,28,19,12,45,30,14,30.37,30.27,19,0,19,0.00
2013-12-31,65,49,42,29,20,-100,47,34,17,30.35,30.23,9,-10,9,0.00
2014-1-1,66,51,43,34,27,19,61,41,23,30.29,30.18,7,0,7,0.00
2014-1-2,69,51,43,36,31,27,62,49,22,30.29,30.12,8,0,8,0.00